UTA2120 UWLL-UWKD
Flight info
| Callsign | UTA2120 |
|---|---|
| Flight time | 0h 30m |
| Altitude | 19000 |
| Route | AGUTO1M AGUTO T789 SONUM SONUM1T |
| Aircraft | YK40/M-SDFIRWY/H |
Departure
| Time | 2026-04-21 18:59 |
|---|---|
| Airport | Ulyanovsk Baratayevka Airport (UWLL) |
Arrival
| Time | 2026-04-21 19:29 |
|---|---|
| Airport | Kazan International Airport (UWKD) |
| Time | Latitude | Longitude | Altitude | Speed | Heading |
|---|---|---|---|---|---|
| 2026-04-21 18:47 | 54.28640 | 48.23206 | 468 ft | 0 kts | 121° |
| 2026-04-21 18:56 | 54.28634 | 48.23223 | 468 ft | 3 kts | 122° |
| 2026-04-21 18:56 | 54.28591 | 48.23257 | 468 ft | 11 kts | 194° |
| 2026-04-21 18:56 | 54.28535 | 48.23224 | 468 ft | 13 kts | 155° |
| 2026-04-21 18:56 | 54.28464 | 48.23407 | 468 ft | 24 kts | 120° |
| 2026-04-21 18:57 | 54.28364 | 48.23683 | 468 ft | 25 kts | 121° |
| 2026-04-21 18:57 | 54.28292 | 48.23865 | 468 ft | 14 kts | 146° |
| 2026-04-21 18:57 | 54.28226 | 48.23850 | 468 ft | 0 kts | 210° |
| 2026-04-21 18:58 | 54.28140 | 48.23758 | 468 ft | 41 kts | 213° |
| 2026-04-21 18:58 | 54.27765 | 48.23350 | 468 ft | 98 kts | 215° |
| 2026-04-21 18:59 | 54.27092 | 48.22623 | 807 ft | 115 kts | 215° |
| 2026-04-21 18:59 | 54.26450 | 48.21934 | 1344 ft | 114 kts | 221° |
| 2026-04-21 18:59 | 54.25734 | 48.21199 | 1817 ft | 129 kts | 213° |
| 2026-04-21 18:59 | 54.24898 | 48.20537 | 2251 ft | 148 kts | 212° |
| 2026-04-21 19:00 | 54.23908 | 48.19705 | 2657 ft | 170 kts | 216° |
| 2026-04-21 19:00 | 54.22959 | 48.18440 | 3274 ft | 174 kts | 233° |
| 2026-04-21 19:00 | 54.22331 | 48.16711 | 3909 ft | 174 kts | 261° |
| 2026-04-21 19:00 | 54.22637 | 48.14790 | 4545 ft | 180 kts | 311° |
| 2026-04-21 19:01 | 54.23773 | 48.13921 | 5261 ft | 191 kts | 346° |
| 2026-04-21 19:01 | 54.25046 | 48.14016 | 5956 ft | 198 kts | 4° |
| 2026-04-21 19:01 | 54.26393 | 48.14570 | 6671 ft | 200 kts | 6° |
| 2026-04-21 19:01 | 54.27667 | 48.15067 | 7336 ft | 201 kts | 6° |
| 2026-04-21 19:02 | 54.29008 | 48.15557 | 8027 ft | 201 kts | 6° |
| 2026-04-21 19:02 | 54.30189 | 48.15971 | 8626 ft | 201 kts | 6° |
| 2026-04-21 19:02 | 54.31566 | 48.16436 | 9312 ft | 201 kts | 6° |
| 2026-04-21 19:02 | 54.32922 | 48.16909 | 9976 ft | 201 kts | 7° |
| 2026-04-21 19:03 | 54.34278 | 48.17389 | 10623 ft | 200 kts | 7° |
| 2026-04-21 19:03 | 54.35532 | 48.17829 | 11220 ft | 200 kts | 8° |
| 2026-04-21 19:03 | 54.36845 | 48.18474 | 11856 ft | 199 kts | 11° |
| 2026-04-21 19:03 | 54.38138 | 48.19114 | 12381 ft | 202 kts | 10° |
| 2026-04-21 19:04 | 54.39498 | 48.19775 | 12908 ft | 206 kts | 11° |
| 2026-04-21 19:04 | 54.40871 | 48.20440 | 13457 ft | 208 kts | 11° |
| 2026-04-21 19:04 | 54.42225 | 48.21096 | 14001 ft | 209 kts | 10° |
| 2026-04-21 19:04 | 54.43614 | 48.21776 | 14559 ft | 209 kts | 10° |
| 2026-04-21 19:05 | 54.44999 | 48.22462 | 15118 ft | 209 kts | 11° |
| 2026-04-21 19:05 | 54.46405 | 48.23164 | 15685 ft | 209 kts | 10° |
| 2026-04-21 19:05 | 54.47803 | 48.23866 | 16238 ft | 209 kts | 11° |
| 2026-04-21 19:05 | 54.49186 | 48.24585 | 16782 ft | 210 kts | 14° |
| 2026-04-21 19:06 | 54.50470 | 48.25628 | 17319 ft | 214 kts | 28° |
| 2026-04-21 19:06 | 54.51592 | 48.27378 | 17772 ft | 221 kts | 38° |
| 2026-04-21 19:06 | 54.52678 | 48.29242 | 18099 ft | 229 kts | 38° |
| 2026-04-21 19:06 | 54.53861 | 48.31210 | 18288 ft | 243 kts | 38° |
| 2026-04-21 19:07 | 54.55128 | 48.33251 | 18534 ft | 253 kts | 37° |
| 2026-04-21 19:07 | 54.56454 | 48.35376 | 18703 ft | 265 kts | 37° |
| 2026-04-21 19:07 | 54.57695 | 48.37363 | 18743 ft | 279 kts | 37° |
| 2026-04-21 19:07 | 54.59057 | 48.39532 | 18762 ft | 292 kts | 37° |
| 2026-04-21 19:08 | 54.60576 | 48.41941 | 18767 ft | 304 kts | 37° |
| 2026-04-21 19:08 | 54.62146 | 48.44426 | 18758 ft | 306 kts | 37° |
| 2026-04-21 19:08 | 54.63690 | 48.46876 | 18740 ft | 299 kts | 37° |
| 2026-04-21 19:08 | 54.65063 | 48.49070 | 18743 ft | 293 kts | 37° |
| 2026-04-21 19:09 | 54.66546 | 48.51447 | 18744 ft | 288 kts | 37° |
| 2026-04-21 19:09 | 54.67908 | 48.53640 | 18749 ft | 284 kts | 37° |
| 2026-04-21 19:09 | 54.69329 | 48.55931 | 18746 ft | 282 kts | 37° |
| 2026-04-21 19:09 | 54.70777 | 48.58257 | 18747 ft | 284 kts | 37° |
| 2026-04-21 19:10 | 54.72231 | 48.60589 | 18743 ft | 286 kts | 37° |
| 2026-04-21 19:10 | 54.73606 | 48.62792 | 18736 ft | 288 kts | 37° |
| 2026-04-21 19:10 | 54.75089 | 48.65171 | 18744 ft | 292 kts | 38° |
| 2026-04-21 19:10 | 54.76575 | 48.67558 | 18745 ft | 297 kts | 38° |
| 2026-04-21 19:11 | 54.78104 | 48.70009 | 18741 ft | 300 kts | 38° |
| 2026-04-21 19:11 | 54.79643 | 48.72471 | 18731 ft | 303 kts | 38° |
| 2026-04-21 19:11 | 54.81195 | 48.74947 | 18743 ft | 305 kts | 38° |
| 2026-04-21 19:11 | 54.82783 | 48.77378 | 18748 ft | 304 kts | 33° |
| 2026-04-21 19:12 | 54.83950 | 48.78708 | 18768 ft | 301 kts | 28° |
| 2026-04-21 19:12 | 54.86381 | 48.81215 | 18719 ft | 303 kts | 27° |
| 2026-04-21 19:12 | 54.88190 | 48.83107 | 18736 ft | 304 kts | 27° |
| 2026-04-21 19:12 | 54.89992 | 48.85003 | 18741 ft | 305 kts | 27° |
| 2026-04-21 19:13 | 54.91795 | 48.86904 | 18745 ft | 305 kts | 27° |
| 2026-04-21 19:13 | 54.93594 | 48.88810 | 18747 ft | 306 kts | 27° |
| 2026-04-21 19:13 | 54.95375 | 48.90699 | 18747 ft | 306 kts | 27° |
| 2026-04-21 19:13 | 54.97100 | 48.92521 | 18742 ft | 306 kts | 27° |
| 2026-04-21 19:14 | 54.98875 | 48.94386 | 18744 ft | 306 kts | 27° |
| 2026-04-21 19:14 | 55.00679 | 48.96284 | 18743 ft | 306 kts | 27° |
| 2026-04-21 19:14 | 55.02519 | 48.98221 | 18750 ft | 306 kts | 27° |
| 2026-04-21 19:14 | 55.04327 | 49.00126 | 18751 ft | 306 kts | 27° |
| 2026-04-21 19:15 | 55.06205 | 49.01940 | 18518 ft | 308 kts | 25° |
| 2026-04-21 19:15 | 55.08028 | 49.03635 | 18221 ft | 285 kts | 25° |
| 2026-04-21 19:15 | 55.09692 | 49.05259 | 17877 ft | 263 kts | 25° |
| 2026-04-21 19:15 | 55.11275 | 49.06617 | 17519 ft | 243 kts | 20° |
| 2026-04-21 19:16 | 55.12682 | 49.07696 | 17136 ft | 232 kts | 20° |
| 2026-04-21 19:16 | 55.14133 | 49.08844 | 16700 ft | 224 kts | 20° |
| 2026-04-21 19:16 | 55.15521 | 49.09964 | 16256 ft | 219 kts | 20° |
| 2026-04-21 19:16 | 55.16671 | 49.10848 | 15877 ft | 213 kts | 13° |
| 2026-04-21 19:17 | 55.19302 | 49.12641 | 15009 ft | 210 kts | 26° |
| 2026-04-21 19:17 | 55.20456 | 49.14221 | 14568 ft | 212 kts | 39° |
| 2026-04-21 19:17 | 55.21480 | 49.16062 | 14108 ft | 212 kts | 38° |
| 2026-04-21 19:18 | 55.22509 | 49.17881 | 13645 ft | 214 kts | 38° |
| 2026-04-21 19:18 | 55.23584 | 49.19736 | 13208 ft | 225 kts | 38° |
| 2026-04-21 19:18 | 55.24757 | 49.21659 | 12807 ft | 233 kts | 33° |
| 2026-04-21 19:18 | 55.25999 | 49.23273 | 12463 ft | 238 kts | 31° |
| 2026-04-21 19:19 | 55.27352 | 49.25008 | 12101 ft | 243 kts | 31° |
| 2026-04-21 19:19 | 55.28713 | 49.26770 | 11753 ft | 245 kts | 31° |
| 2026-04-21 19:19 | 55.30103 | 49.28573 | 11408 ft | 247 kts | 32° |
| 2026-04-21 19:19 | 55.31492 | 49.30371 | 11070 ft | 245 kts | 32° |
| 2026-04-21 19:20 | 55.32780 | 49.32044 | 10649 ft | 235 kts | 32° |
| 2026-04-21 19:20 | 55.34079 | 49.33730 | 9985 ft | 233 kts | 32° |
| 2026-04-21 19:20 | 55.35374 | 49.35404 | 9309 ft | 232 kts | 32° |
| 2026-04-21 19:20 | 55.36669 | 49.37074 | 8634 ft | 230 kts | 32° |
| 2026-04-21 19:21 | 55.37889 | 49.38642 | 8007 ft | 227 kts | 31° |
| 2026-04-21 19:21 | 55.39080 | 49.40166 | 7713 ft | 200 kts | 31° |
| 2026-04-21 19:21 | 55.40159 | 49.41565 | 7379 ft | 183 kts | 31° |
| 2026-04-21 19:21 | 55.41163 | 49.42835 | 6996 ft | 174 kts | 31° |
| 2026-04-21 19:22 | 55.42150 | 49.43985 | 6603 ft | 169 kts | 28° |
| 2026-04-21 19:22 | 55.43101 | 49.45126 | 6216 ft | 164 kts | 28° |
| 2026-04-21 19:22 | 55.44009 | 49.46228 | 5866 ft | 156 kts | 28° |
| 2026-04-21 19:22 | 55.44910 | 49.47324 | 5409 ft | 155 kts | 28° |
| 2026-04-21 19:23 | 55.45766 | 49.48374 | 4978 ft | 154 kts | 28° |
| 2026-04-21 19:23 | 55.46643 | 49.49457 | 4536 ft | 153 kts | 28° |
| 2026-04-21 19:23 | 55.47501 | 49.50527 | 4099 ft | 152 kts | 28° |
| 2026-04-21 19:23 | 55.48362 | 49.51614 | 3593 ft | 151 kts | 28° |
| 2026-04-21 19:24 | 55.49192 | 49.52676 | 3233 ft | 146 kts | 28° |
| 2026-04-21 19:24 | 55.50034 | 49.53560 | 2947 ft | 141 kts | 6° |
| 2026-04-21 19:24 | 55.50892 | 49.53077 | 2622 ft | 129 kts | 311° |
| 2026-04-21 19:24 | 55.51447 | 49.51919 | 2437 ft | 120 kts | 305° |
| 2026-04-21 19:25 | 55.51935 | 49.50756 | 2105 ft | 118 kts | 303° |
| 2026-04-21 19:25 | 55.52373 | 49.49531 | 1776 ft | 117 kts | 300° |
| 2026-04-21 19:25 | 55.52811 | 49.48348 | 1579 ft | 116 kts | 300° |
| 2026-04-21 19:25 | 55.53260 | 49.47141 | 1385 ft | 117 kts | 300° |
| 2026-04-21 19:26 | 55.53699 | 49.45925 | 1195 ft | 118 kts | 299° |
| 2026-04-21 19:26 | 55.54145 | 49.44681 | 1021 ft | 121 kts | 299° |
| 2026-04-21 19:26 | 55.54599 | 49.43420 | 880 ft | 123 kts | 300° |
| 2026-04-21 19:26 | 55.55102 | 49.42149 | 794 ft | 128 kts | 306° |
| 2026-04-21 19:27 | 55.55642 | 49.40926 | 829 ft | 124 kts | 305° |
| 2026-04-21 19:27 | 55.56148 | 49.39685 | 837 ft | 124 kts | 302° |
| 2026-04-21 19:27 | 55.56612 | 49.38411 | 911 ft | 125 kts | 300° |
| 2026-04-21 19:27 | 55.57095 | 49.37111 | 1027 ft | 125 kts | 301° |
| 2026-04-21 19:28 | 55.57558 | 49.35887 | 1077 ft | 123 kts | 302° |
| 2026-04-21 19:28 | 55.58033 | 49.34667 | 1094 ft | 119 kts | 300° |
| 2026-04-21 19:28 | 55.58491 | 49.33408 | 1013 ft | 123 kts | 301° |
| 2026-04-21 19:28 | 55.58972 | 49.32115 | 800 ft | 125 kts | 301° |
| 2026-04-21 19:29 | 55.59438 | 49.30932 | 598 ft | 112 kts | 303° |
| 2026-04-21 19:29 | 55.59880 | 49.29800 | 447 ft | 112 kts | 302° |
| 2026-04-21 19:29 | 55.60287 | 49.28746 | 423 ft | 89 kts | 301° |
| 2026-04-21 19:29 | 55.60512 | 49.28173 | 423 ft | 46 kts | 303° |
| 2026-04-21 19:30 | 55.60681 | 49.27727 | 423 ft | 40 kts | 303° |
| 2026-04-21 19:30 | 55.60827 | 49.27350 | 423 ft | 33 kts | 302° |
| 2026-04-21 19:30 | 55.60950 | 49.27037 | 423 ft | 28 kts | 305° |
| 2026-04-21 19:30 | 55.61038 | 49.26817 | 423 ft | 9 kts | 309° |
| 2026-04-21 19:31 | 55.61087 | 49.26774 | 423 ft | 9 kts | 12° |
| 2026-04-21 19:31 | 55.61137 | 49.26832 | 423 ft | 0 kts | 33° |
| 2026-04-21 19:32 | 55.61152 | 49.26849 | 423 ft | 8 kts | 32° |
| 2026-04-21 19:32 | 55.61251 | 49.26966 | 423 ft | 23 kts | 33° |
| 2026-04-21 19:32 | 55.61350 | 49.27124 | 423 ft | 18 kts | 73° |
| 2026-04-21 19:32 | 55.61314 | 49.27276 | 422 ft | 13 kts | 127° |